createdAt,value
2022-10-19T00:00:50.764Z,4.55
2022-10-19T00:03:20.742Z,4.22
2022-10-19T00:05:49.749Z,4.80
2022-10-19T00:08:16.312Z,4.68
2022-10-19T00:10:42.904Z,4.50
2022-10-19T00:13:09.563Z,4.82
2022-10-19T00:15:45.753Z,4.28
2022-10-19T00:18:12.302Z,4.53
2022-10-19T00:20:38.875Z,4.57
2022-10-19T00:23:05.538Z,4.22
2022-10-19T00:25:32.199Z,4.55
2022-10-19T00:27:58.857Z,4.78
2022-10-19T00:30:25.468Z,4.55
2022-10-19T00:32:52.023Z,4.45
2022-10-19T00:35:18.579Z,4.57
2022-10-19T00:37:45.140Z,4.47
2022-10-19T00:40:12.279Z,4.90
2022-10-19T00:42:38.979Z,4.32
2022-10-19T00:45:13.052Z,4.45
2022-10-19T00:47:41.013Z,5.20
2022-10-19T00:50:08.817Z,4.63
2022-10-19T00:52:35.761Z,4.13
2022-10-19T00:55:03.161Z,4.43
2022-10-19T00:57:31.264Z,5.00
2022-10-19T00:59:59.996Z,5.53
2022-10-19T01:02:26.672Z,5.18
2022-10-19T01:04:53.683Z,5.20
2022-10-19T01:07:21.122Z,5.95
2022-10-19T01:09:47.768Z,5.60
2022-10-19T01:12:59.818Z,5.57
2022-10-19T01:16:00.038Z,5.85
2022-10-19T01:18:41.429Z,5.55
2022-10-19T01:21:19.771Z,6.68
2022-10-19T01:24:04.553Z,5.78
2022-10-19T01:26:49.756Z,5.05
2022-10-19T01:30:01.402Z,5.43
2022-10-19T01:32:27.963Z,5.90
2022-10-19T01:35:13.454Z,4.88
2022-10-19T01:37:40.012Z,6.38
2022-10-19T01:40:12.044Z,5.35
2022-10-19T01:42:48.466Z,5.18
2022-10-19T01:45:21.183Z,4.72
2022-10-19T01:48:06.726Z,5.03
2022-10-19T01:50:44.674Z,4.60
2022-10-19T01:53:12.636Z,4.97
2022-10-19T01:55:42.768Z,5.38
2022-10-19T01:58:13.402Z,5.10
2022-10-19T02:00:43.839Z,5.45
2022-10-19T02:03:13.039Z,4.93
2022-10-19T02:05:41.533Z,6.32
2022-10-19T02:08:20.332Z,4.65
2022-10-19T02:10:47.566Z,4.72
2022-10-19T02:13:16.039Z,5.35
2022-10-19T02:15:47.316Z,5.28
2022-10-19T02:18:17.660Z,5.30
2022-10-19T02:20:44.617Z,5.20
2022-10-19T02:23:13.203Z,4.97
2022-10-19T02:25:39.866Z,5.50
2022-10-19T02:28:06.726Z,4.20
2022-10-19T02:30:33.577Z,4.97
2022-10-19T02:33:00.431Z,4.95
2022-10-19T02:35:27.516Z,4.28
2022-10-19T02:37:55.980Z,4.70
2022-10-19T02:40:23.798Z,5.75
2022-10-19T02:42:58.285Z,5.22
2022-10-19T02:45:40.103Z,4.88
2022-10-19T02:48:12.876Z,4.78
2022-10-19T02:50:49.875Z,4.10
2022-10-19T02:53:16.887Z,3.63
2022-10-19T02:55:44.321Z,4.00
2022-10-19T02:58:10.920Z,4.57
2022-10-19T03:00:37.533Z,3.78
2022-10-19T03:03:04.127Z,4.30
2022-10-19T03:05:30.764Z,4.47
2022-10-19T03:07:57.353Z,3.97
2022-10-19T03:10:24.301Z,3.70
2022-10-19T03:12:50.931Z,3.92
2022-10-19T03:15:19.131Z,3.22
2022-10-19T03:17:45.840Z,5.63
2022-10-19T03:20:12.581Z,3.78
2022-10-19T03:22:39.286Z,4.05
2022-10-19T03:25:06.451Z,4.22
2022-10-19T03:27:33.297Z,3.55
2022-10-19T03:29:59.993Z,3.75
2022-10-19T03:32:26.732Z,3.40
2022-10-19T03:34:53.328Z,3.88
2022-10-19T03:37:19.912Z,3.63
2022-10-19T03:39:46.447Z,3.88
2022-10-19T03:42:13.005Z,4.25
2022-10-19T03:44:39.588Z,3.63
2022-10-19T03:47:06.215Z,4.15
2022-10-19T03:49:34.622Z,4.20
2022-10-19T03:52:03.605Z,4.55
2022-10-19T03:54:30.213Z,4.75
2022-10-19T03:56:56.831Z,4.53
2022-10-19T03:59:24.295Z,4.57
2022-10-19T04:01:51.025Z,3.72
2022-10-19T04:04:19.869Z,4.40
2022-10-19T04:06:48.772Z,4.50
2022-10-19T04:09:18.434Z,4.28
2022-10-19T04:11:45.471Z,4.13
2022-10-19T04:14:22.683Z,3.72
2022-10-19T04:16:58.829Z,4.05
2022-10-19T04:19:25.450Z,3.92
2022-10-19T04:21:52.156Z,3.67
2022-10-19T04:24:19.259Z,4.10
2022-10-19T04:26:56.378Z,4.20
2022-10-19T04:29:27.901Z,4.30
2022-10-19T04:31:56.840Z,4.18
2022-10-19T04:34:24.134Z,3.67
2022-10-19T04:36:50.735Z,5.15
2022-10-19T04:39:17.446Z,4.63
2022-10-19T04:41:44.031Z,3.78
2022-10-19T04:44:10.872Z,3.97
2022-10-19T04:46:38.620Z,4.53
2022-10-19T04:49:06.764Z,4.03
2022-10-19T04:51:34.286Z,3.45
2022-10-19T04:54:03.007Z,4.07
2022-10-19T04:56:30.752Z,4.43
2022-10-19T04:58:58.536Z,4.15
2022-10-19T05:01:26.869Z,3.65
2022-10-19T05:03:59.108Z,3.65
2022-10-19T05:06:25.987Z,3.78
2022-10-19T05:08:53.137Z,3.80
2022-10-19T05:11:20.060Z,3.42
2022-10-19T05:13:50.246Z,3.67
2022-10-19T05:16:19.768Z,4.60
2022-10-19T05:18:50.764Z,3.60
2022-10-19T05:21:18.827Z,4.05
2022-10-19T05:23:46.207Z,3.75
2022-10-19T05:26:16.847Z,4.57
2022-10-19T05:28:47.565Z,4.57
2022-10-19T05:31:19.456Z,4.43
2022-10-19T05:33:46.652Z,4.20
2022-10-19T05:36:13.392Z,4.53
2022-10-19T05:38:40.162Z,4.43
2022-10-19T05:41:07.000Z,4.35
2022-10-19T05:43:33.645Z,3.83
2022-10-19T05:46:08.141Z,3.92
2022-10-19T05:48:35.473Z,4.93
2022-10-19T05:51:05.051Z,4.60
2022-10-19T05:53:32.294Z,4.13
2022-10-19T05:55:59.120Z,3.38
2022-10-19T05:58:25.772Z,3.80
2022-10-19T06:00:57.360Z,3.65
2022-10-19T06:03:25.347Z,4.15
2022-10-19T06:05:53.678Z,4.28
2022-10-19T06:08:21.561Z,4.80
2022-10-19T06:10:49.103Z,4.45
2022-10-19T06:13:19.257Z,4.22
2022-10-19T06:15:50.514Z,4.68
2022-10-19T06:18:17.099Z,5.00
2022-10-19T06:20:43.669Z,4.95
2022-10-19T06:23:10.287Z,4.28
2022-10-19T06:25:36.910Z,4.07
2022-10-19T06:28:04.049Z,4.38
2022-10-19T06:30:30.643Z,4.90
2022-10-19T06:32:59.519Z,4.30
2022-10-19T06:35:26.203Z,5.07
2022-10-19T06:37:52.767Z,5.00
2022-10-19T06:40:19.444Z,5.50
2022-10-19T06:42:46.068Z,5.50
2022-10-19T06:45:12.681Z,5.43
2022-10-19T06:47:39.494Z,5.63
2022-10-19T06:50:07.065Z,6.07
2022-10-19T06:52:34.876Z,5.68
2022-10-19T06:55:02.208Z,4.45
2022-10-19T06:57:28.766Z,2.90
2022-10-19T06:59:55.715Z,5.78
2022-10-19T07:02:22.295Z,5.90
2022-10-19T07:04:48.896Z,6.07
2022-10-19T07:07:15.530Z,5.68
2022-10-19T07:09:42.104Z,5.78
2022-10-19T07:12:10.740Z,6.13
2022-10-19T07:14:39.500Z,5.97
2022-10-19T07:17:11.603Z,5.53
2022-10-19T07:19:38.479Z,5.82
2022-10-19T07:22:05.187Z,6.60
2022-10-19T07:24:31.757Z,5.97
2022-10-19T07:26:58.588Z,5.80
2022-10-19T07:29:25.173Z,5.95
2022-10-19T07:31:51.759Z,6.43
2022-10-19T07:34:18.436Z,6.45
2022-10-19T07:36:47.964Z,6.18
2022-10-19T07:39:16.975Z,7.60
2022-10-19T07:41:43.941Z,8.10
2022-10-19T07:44:14.801Z,7.13
2022-10-19T07:46:42.969Z,7.57
2022-10-19T07:49:13.903Z,7.38
2022-10-19T07:51:40.724Z,7.55
2022-10-19T07:54:07.464Z,7.47
2022-10-19T07:56:34.396Z,7.40
2022-10-19T07:59:01.650Z,8.02
2022-10-19T08:01:38.526Z,8.20
2022-10-19T08:06:51.777Z,6.65
2022-10-19T08:09:47.194Z,5.68
2022-10-19T08:12:06.038Z,8.63
2022-10-19T08:14:32.781Z,7.38
2022-10-19T08:17:01.932Z,8.63
2022-10-19T08:19:28.783Z,7.03
2022-10-19T08:21:55.430Z,7.88
2022-10-19T08:24:21.997Z,5.43
2022-10-19T08:26:51.071Z,7.93
2022-10-19T08:29:20.376Z,6.32
2022-10-19T08:31:48.692Z,7.97
2022-10-19T08:34:16.296Z,7.82
2022-10-19T08:36:43.589Z,8.02
2022-10-19T08:39:12.630Z,7.78
2022-10-19T08:41:57.552Z,9.02
2022-10-19T08:44:30.096Z,7.72
2022-10-19T08:47:12.411Z,8.32
2022-10-19T08:49:40.028Z,5.97
2022-10-19T08:52:21.172Z,9.45
2022-10-19T08:54:54.617Z,9.55
2022-10-19T08:57:31.078Z,7.65
2022-10-19T09:00:34.898Z,9.27
2022-10-19T09:03:54.329Z,8.43
2022-10-19T09:06:57.176Z,9.02
2022-10-19T09:09:24.352Z,7.57
2022-10-19T09:11:55.443Z,7.95
2022-10-19T09:14:36.379Z,7.40
2022-10-19T09:17:09.943Z,8.23
2022-10-19T09:19:36.517Z,8.20
2022-10-19T09:22:24.989Z,8.02
2022-10-19T09:24:55.370Z,7.40
2022-10-19T09:27:24.646Z,3.42
2022-10-19T09:30:01.219Z,5.45
2022-10-19T09:32:30.851Z,6.25
2022-10-19T09:35:06.608Z,5.53
2022-10-19T09:37:40.239Z,6.35
2022-10-19T09:40:11.399Z,5.60
2022-10-19T09:42:38.699Z,6.03
2022-10-19T09:45:19.651Z,4.70
2022-10-19T09:47:48.631Z,4.47
2022-10-19T09:50:26.603Z,4.90
2022-10-19T09:52:53.176Z,3.50
2022-10-19T09:55:28.561Z,3.58
2022-10-19T09:58:19.852Z,3.97
2022-10-19T10:00:51.917Z,3.80
2022-10-19T10:03:26.602Z,3.60
2022-10-19T10:05:54.145Z,4.38
2022-10-19T10:08:29.356Z,3.85
2022-10-19T10:11:10.810Z,3.00
2022-10-19T10:13:43.349Z,2.88
2022-10-19T10:16:15.020Z,2.90
2022-10-19T10:18:57.960Z,3.85
2022-10-19T10:21:34.537Z,3.50
2022-10-19T10:24:05.519Z,2.80
2022-10-19T10:26:38.476Z,3.58
2022-10-19T10:29:28.915Z,2.53
2022-10-19T10:32:00.889Z,3.03
2022-10-19T10:34:49.795Z,2.50
2022-10-19T10:37:30.533Z,2.70
2022-10-19T10:40:01.827Z,3.25
2022-10-19T10:42:43.237Z,2.75
2022-10-19T10:45:39.503Z,3.60
2022-10-19T10:48:32.850Z,3.55
2022-10-19T10:51:01.732Z,4.13
2022-10-19T10:53:33.712Z,3.30
2022-10-19T10:56:00.309Z,3.40
2022-10-19T10:58:54.907Z,3.13
2022-10-19T11:01:29.715Z,4.13
2022-10-19T11:04:12.674Z,2.97
2022-10-19T11:06:47.380Z,3.20
2022-10-19T11:11:49.504Z,2.58
2022-10-19T11:14:25.668Z,2.38
2022-10-19T11:16:54.756Z,2.35
2022-10-19T11:19:31.911Z,2.42
2022-10-19T11:22:22.443Z,2.50
2022-10-19T11:25:29.211Z,2.33
2022-10-19T11:28:15.319Z,2.08
2022-10-19T11:31:10.806Z,2.13
2022-10-19T11:36:31.836Z,3.03
2022-10-19T11:39:09.321Z,2.10
2022-10-19T11:41:38.818Z,2.38
2022-10-19T11:44:39.075Z,3.45
2022-10-19T11:47:24.130Z,2.10
2022-10-19T11:53:12.188Z,2.65
2022-10-19T11:56:09.098Z,2.30
2022-10-19T11:58:56.639Z,3.00
2022-10-19T12:01:36.092Z,2.80
2022-10-19T12:04:40.655Z,2.33
2022-10-19T12:07:35.337Z,2.35
2022-10-19T12:10:04.863Z,2.57
2022-10-19T12:12:34.006Z,1.40
2022-10-19T12:15:26.336Z,2.00
2022-10-19T12:17:56.005Z,2.17
2022-10-19T12:21:01.502Z,2.33
2022-10-19T12:23:35.209Z,2.03
2022-10-19T12:26:08.808Z,1.60
2022-10-19T12:28:41.763Z,1.90
2022-10-19T12:31:10.733Z,3.58
2022-10-19T12:33:47.705Z,2.38
2022-10-19T12:36:36.772Z,2.22
2022-10-19T12:39:33.249Z,1.95
2022-10-19T12:42:28.591Z,2.10
2022-10-19T12:45:02.513Z,2.30
2022-10-19T12:47:29.207Z,1.80
2022-10-19T12:49:57.083Z,1.70
2022-10-19T12:52:44.300Z,2.05
2022-10-19T12:55:19.743Z,2.00
2022-10-19T12:57:48.727Z,1.73
2022-10-19T13:00:20.129Z,1.55
2022-10-19T13:02:55.281Z,1.73
2022-10-19T13:05:24.192Z,1.48
2022-10-19T13:10:26.611Z,1.48
2022-10-19T13:12:54.316Z,1.23
2022-10-19T13:15:36.047Z,2.72
2022-10-19T13:18:05.237Z,1.55
2022-10-19T13:20:33.652Z,1.95
2022-10-19T13:23:00.248Z,1.65
2022-10-19T13:25:31.433Z,1.98
2022-10-19T13:28:07.348Z,1.88
2022-10-19T13:30:37.283Z,1.85
2022-10-19T13:33:24.448Z,2.15
2022-10-19T13:35:59.894Z,2.30
2022-10-19T13:38:41.077Z,1.73
2022-10-19T13:41:25.905Z,1.60
2022-10-19T13:43:58.213Z,3.28
2022-10-19T13:46:31.020Z,1.70
2022-10-19T13:49:22.055Z,1.63
2022-10-19T13:52:03.867Z,2.47
2022-10-19T13:54:44.944Z,1.55
2022-10-19T13:57:26.394Z,1.95
2022-10-19T14:00:05.177Z,1.88
2022-10-19T14:02:54.735Z,1.40
2022-10-19T14:05:42.945Z,1.85
2022-10-19T14:08:37.250Z,2.08
2022-10-19T14:11:11.569Z,1.45
2022-10-19T14:13:38.179Z,1.33
2022-10-19T14:16:05.174Z,1.55
2022-10-19T14:18:34.428Z,1.70
2022-10-19T14:21:09.433Z,1.45
2022-10-19T14:23:40.105Z,1.52
2022-10-19T14:26:18.539Z,1.50
2022-10-19T14:28:45.267Z,1.20
2022-10-19T14:31:22.514Z,1.52
2022-10-19T14:33:56.177Z,1.40
2022-10-19T14:36:27.831Z,1.77
2022-10-19T14:38:55.988Z,1.48
2022-10-19T14:41:40.559Z,1.73
2022-10-19T14:44:40.285Z,1.42
2022-10-19T14:47:19.644Z,1.33
2022-10-19T14:49:46.924Z,1.40
2022-10-19T14:52:20.395Z,1.20
2022-10-19T14:54:51.734Z,1.50
2022-10-19T14:57:32.139Z,1.73
2022-10-19T15:00:03.138Z,1.77
2022-10-19T15:02:44.290Z,1.52
2022-10-19T15:05:23.697Z,1.60
2022-10-19T15:07:50.563Z,1.40
2022-10-19T15:10:23.958Z,2.38
2022-10-19T15:12:52.406Z,1.77
2022-10-19T15:15:30.255Z,1.80
2022-10-19T15:17:59.657Z,1.85
2022-10-19T15:20:49.461Z,1.65
2022-10-19T15:23:31.860Z,1.95
2022-10-19T15:26:03.553Z,3.50
2022-10-19T15:28:38.986Z,2.63
2022-10-19T15:31:26.416Z,2.90
2022-10-19T15:33:55.471Z,2.85
2022-10-19T15:36:23.411Z,2.72
2022-10-19T15:39:25.799Z,2.75
2022-10-19T15:42:38.196Z,3.25
2022-10-19T15:45:32.487Z,3.55
2022-10-19T15:48:21.780Z,3.60
2022-10-19T15:50:50.100Z,3.30
2022-10-19T15:53:16.866Z,3.70
2022-10-19T15:55:43.503Z,3.35
2022-10-19T15:58:11.504Z,1.92
2022-10-19T16:00:38.614Z,3.40
2022-10-19T16:03:05.464Z,3.40
2022-10-19T16:05:32.275Z,3.03
2022-10-19T16:08:01.750Z,3.22
2022-10-19T16:10:35.355Z,3.00
2022-10-19T16:13:04.979Z,3.33
2022-10-19T16:15:42.984Z,3.95
2022-10-19T16:18:14.908Z,3.50
2022-10-19T16:20:43.992Z,3.67
2022-10-19T16:23:33.680Z,3.67
2022-10-19T16:28:56.953Z,3.58
2022-10-19T16:31:24.264Z,3.88
2022-10-19T16:33:51.295Z,3.95
2022-10-19T16:36:20.171Z,4.18
2022-10-19T16:38:47.952Z,4.35
2022-10-19T16:41:15.031Z,4.03
2022-10-19T16:43:41.637Z,4.32
2022-10-19T16:46:08.715Z,4.25
2022-10-19T16:48:35.352Z,5.20
2022-10-19T16:51:07.875Z,3.97
2022-10-19T16:53:36.233Z,4.03
2022-10-19T16:56:13.191Z,4.80
2022-10-19T16:58:40.494Z,4.22
2022-10-19T17:01:12.949Z,4.75
2022-10-19T17:03:39.582Z,5.25
2022-10-19T17:06:07.802Z,4.10
2022-10-19T17:08:44.202Z,4.55
2022-10-19T17:11:28.425Z,5.45
2022-10-19T17:13:57.264Z,4.18
2022-10-19T17:16:26.147Z,4.50
2022-10-19T17:18:54.977Z,4.03
2022-10-19T17:21:24.182Z,5.03
2022-10-19T17:23:56.212Z,4.90
2022-10-19T17:26:30.573Z,3.88
2022-10-19T17:28:58.233Z,4.97
2022-10-19T17:31:25.722Z,6.47
2022-10-19T17:33:52.683Z,3.70
2022-10-19T17:36:28.515Z,6.60
2022-10-19T17:39:00.268Z,3.88
2022-10-19T17:41:27.994Z,4.07
2022-10-19T17:43:55.288Z,5.05
2022-10-19T17:46:25.521Z,5.45
2022-10-19T17:48:52.794Z,4.47
2022-10-19T17:51:23.614Z,4.13
2022-10-19T17:53:50.995Z,5.60
2022-10-19T17:56:19.907Z,4.75
2022-10-19T17:58:48.480Z,3.60
2022-10-19T18:01:17.102Z,6.18
2022-10-19T18:03:43.799Z,5.35
2022-10-19T18:06:19.330Z,4.68
2022-10-19T18:08:49.373Z,5.30
2022-10-19T18:11:21.710Z,5.95
2022-10-19T18:13:49.418Z,5.85
2022-10-19T18:16:19.724Z,7.43
2022-10-19T18:18:51.712Z,3.83
2022-10-19T18:21:25.193Z,4.45
2022-10-19T18:23:53.568Z,5.97
2022-10-19T18:26:22.737Z,5.93
2022-10-19T18:28:50.647Z,4.95
2022-10-19T18:31:20.242Z,5.35
2022-10-19T18:33:48.172Z,4.95
2022-10-19T18:36:15.559Z,5.53
2022-10-19T18:38:42.468Z,5.47
2022-10-19T18:43:39.839Z,5.10
2022-10-19T18:46:07.447Z,5.53
2022-10-19T18:48:36.224Z,5.25
2022-10-19T18:51:05.768Z,5.55
2022-10-19T18:53:33.151Z,4.32
2022-10-19T18:56:07.846Z,3.05
2022-10-19T19:01:09.101Z,5.13
2022-10-19T19:03:36.741Z,4.28
2022-10-19T19:06:24.712Z,4.13
2022-10-19T19:08:55.003Z,2.90
2022-10-19T19:11:24.188Z,3.80
2022-10-19T19:13:53.477Z,3.10
2022-10-19T19:16:20.455Z,4.63
2022-10-19T19:18:47.465Z,6.20
2022-10-19T19:21:19.336Z,3.75
2022-10-19T19:23:46.953Z,4.03
2022-10-19T19:26:14.616Z,3.95
2022-10-19T19:28:42.890Z,4.30
2022-10-19T19:31:15.188Z,2.85
2022-10-19T19:33:45.922Z,3.78
2022-10-19T19:36:14.683Z,4.18
2022-10-19T19:38:41.486Z,3.35
2022-10-19T19:41:11.418Z,3.97
2022-10-19T19:43:38.840Z,3.95
2022-10-19T19:46:09.457Z,3.35
2022-10-19T19:48:37.115Z,4.55
2022-10-19T19:51:04.794Z,4.30
2022-10-19T19:53:31.447Z,5.60
2022-10-19T19:55:58.051Z,4.60
2022-10-19T19:58:24.624Z,4.45
2022-10-19T20:00:51.228Z,4.03
2022-10-19T20:03:17.921Z,3.83
2022-10-19T20:05:44.578Z,4.80
2022-10-19T20:08:11.412Z,5.15
2022-10-19T20:10:39.391Z,4.85
2022-10-19T20:13:06.273Z,4.32
2022-10-19T20:15:33.338Z,3.42
2022-10-19T20:18:00.009Z,4.13
2022-10-19T20:20:26.616Z,3.85
2022-10-19T20:22:53.244Z,4.72
2022-10-19T20:25:19.855Z,5.22
2022-10-19T20:27:46.446Z,4.10
2022-10-19T20:30:13.058Z,5.10
2022-10-19T20:32:39.641Z,3.83
2022-10-19T20:35:07.416Z,4.57
2022-10-19T20:37:34.188Z,4.80
2022-10-19T20:40:03.381Z,4.15
2022-10-19T20:42:34.248Z,3.53
2022-10-19T20:45:00.993Z,4.70
2022-10-19T20:47:27.597Z,5.30
2022-10-19T20:49:54.188Z,5.55
2022-10-19T20:52:20.929Z,5.13
2022-10-19T20:54:49.232Z,6.00
2022-10-19T20:57:15.823Z,5.50
2022-10-19T20:59:43.786Z,6.30
2022-10-19T21:02:10.845Z,6.20
2022-10-19T21:04:37.775Z,5.63
2022-10-19T21:07:04.945Z,5.45
2022-10-19T21:09:31.916Z,6.05
2022-10-19T21:11:59.095Z,4.82
2022-10-19T21:14:28.503Z,6.05
2022-10-19T21:17:00.355Z,4.47
2022-10-19T21:19:29.380Z,5.30
2022-10-19T21:22:01.471Z,8.38
2022-10-19T21:24:32.418Z,5.75
2022-10-19T21:27:04.693Z,5.03
2022-10-19T21:29:31.487Z,5.28
2022-10-19T21:31:58.188Z,5.90
2022-10-19T21:34:27.378Z,6.45
2022-10-19T21:36:54.452Z,5.82
2022-10-19T21:39:21.237Z,6.05
2022-10-19T21:41:48.708Z,6.20
2022-10-19T21:44:16.421Z,4.93
2022-10-19T21:46:43.572Z,6.25
2022-10-19T21:49:13.285Z,6.45
2022-10-19T21:51:50.441Z,5.95
2022-10-19T21:54:19.538Z,6.95
2022-10-19T21:56:46.995Z,6.72
2022-10-19T21:59:14.513Z,7.00
2022-10-19T22:01:41.838Z,6.28
2022-10-19T22:04:14.211Z,6.53
2022-10-19T22:06:41.095Z,6.65
2022-10-19T22:09:10.540Z,6.32
2022-10-19T22:11:37.245Z,6.03
2022-10-19T22:14:04.592Z,4.55
2022-10-19T22:16:32.386Z,6.75
2022-10-19T22:18:59.346Z,4.80
2022-10-19T22:21:28.629Z,5.93
2022-10-19T22:23:58.166Z,6.22
2022-10-19T22:26:27.810Z,7.30
2022-10-19T22:28:58.322Z,6.53
2022-10-19T22:31:26.243Z,6.38
2022-10-19T22:33:52.800Z,6.75
2022-10-19T22:36:19.859Z,6.85
2022-10-19T22:38:46.620Z,6.53
2022-10-19T22:42:05.882Z,7.25
2022-10-19T22:44:33.077Z,7.68
2022-10-19T22:46:59.689Z,8.23
2022-10-19T22:49:26.251Z,6.20
2022-10-19T22:51:52.871Z,7.22
2022-10-19T22:54:19.509Z,7.55
2022-10-19T22:56:46.107Z,7.50
2022-10-19T22:59:12.679Z,7.05
2022-10-19T23:01:39.368Z,7.05
2022-10-19T23:04:06.238Z,7.53
2022-10-19T23:06:32.867Z,7.80
2022-10-19T23:08:59.459Z,8.50
2022-10-19T23:11:26.087Z,6.53
2022-10-19T23:13:52.715Z,6.25
2022-10-19T23:16:19.434Z,6.47
2022-10-19T23:18:46.298Z,8.70
2022-10-19T23:21:14.152Z,7.85
2022-10-19T23:23:41.513Z,8.85
2022-10-19T23:26:10.872Z,8.60
2022-10-19T23:28:39.300Z,7.75
2022-10-19T23:31:15.415Z,7.47
2022-10-19T23:33:42.874Z,6.28
2022-10-19T23:36:14.188Z,8.10
2022-10-19T23:38:42.156Z,7.55
2022-10-19T23:41:08.900Z,5.47
2022-10-19T23:46:03.524Z,10.13
2022-10-19T23:48:30.254Z,8.25
2022-10-19T23:51:02.313Z,8.88
2022-10-19T23:53:30.286Z,9.68
2022-10-19T23:56:06.107Z,6.20
2022-10-19T23:58:33.258Z,7.63
